Time;durP1;ratioP1;P1;durP2;ratioP2;P2;SDS_P1;SDS_P2;PMS_P1;PMS_P2;Temp;Humidity;BMP_temperature;BMP_pressure;BME280_temperature;BME280_humidity;BME280_pressure;Samples;Min_cycle;Max_cycle;Signal;HPM_P1;HPM_P2
2021/11/19 00:01:55;;;;;;;24.73;14.43;;;11.20;99.90;;;;;;4984920;28;20030;-61
2021/11/19 00:04:22;;;;;;;30.00;15.38;;;11.20;99.90;;;;;;4984559;28;20122;-61
2021/11/19 00:06:48;;;;;;;29.60;15.80;;;11.20;99.90;;;;;;5013653;28;20069;-62
2021/11/19 00:09:14;;;;;;;29.48;15.57;;;11.20;99.90;;;;;;5013390;28;20088;-61
2021/11/19 00:11:43;;;;;;;29.05;15.30;;;11.20;99.90;;;;;;4998843;28;20057;-62
2021/11/19 00:14:09;;;;;;;29.10;15.52;;;11.20;99.90;;;;;;5013503;28;20018;-61
2021/11/19 00:16:36;;;;;;;32.83;16.63;;;11.20;99.90;;;;;;5012214;28;20088;-61
2021/11/19 00:19:03;;;;;;;27.67;15.65;;;11.20;99.90;;;;;;5006949;28;20033;-61
2021/11/19 00:21:30;;;;;;;26.40;16.95;;;11.20;99.90;;;;;;5013257;28;20420;-61
2021/11/19 00:23:56;;;;;;;24.73;15.38;;;11.20;99.90;;;;;;5012996;28;20034;-61
2021/11/19 00:26:23;;;;;;;28.80;16.58;;;11.20;99.90;;;;;;5013414;28;20053;-61
2021/11/19 00:28:49;;;;;;;31.50;16.92;;;11.30;99.90;;;;;;5013134;28;20053;-62
2021/11/19 00:31:15;;;;;;;28.40;16.05;;;11.30;99.90;;;;;;5012984;28;20061;-62
2021/11/19 00:33:42;;;;;;;29.95;16.92;;;11.30;99.90;;;;;;5013289;28;20474;-61
2021/11/19 00:36:11;;;;;;;26.45;15.90;;;11.30;99.90;;;;;;4995736;28;20067;-61
2021/11/19 00:38:39;;;;;;;29.25;16.08;;;11.30;99.90;;;;;;5012535;28;20026;-61
2021/11/19 00:41:07;;;;;;;23.65;14.93;;;11.30;99.90;;;;;;5012419;28;20036;-61
2021/11/19 00:43:33;;;;;;;26.25;15.90;;;11.30;99.90;;;;;;5012899;28;20108;-61
2021/11/19 00:45:59;;;;;;;26.02;16.25;;;11.30;99.90;;;;;;5012739;28;20110;-61
2021/11/19 00:48:26;;;;;;;27.60;17.02;;;11.30;99.90;;;;;;5013027;28;20504;-61
2021/11/19 00:51:01;;;;;;;29.48;17.40;;;11.30;99.90;;;;;;5008101;28;20018;-61
2021/11/19 00:53:27;;;;;;;26.95;16.77;;;11.40;99.90;;;;;;5007679;28;20050;-61
2021/11/19 00:55:52;;;;;;;28.92;17.45;;;11.40;99.90;;;;;;5012912;28;20069;-61
2021/11/19 00:58:19;;;;;;;28.38;17.38;;;11.40;99.90;;;;;;5012552;28;20132;-61
2021/11/19 01:00:55;;;;;;;29.30;18.25;;;11.40;99.90;;;;;;5000724;28;20030;-62
2021/11/19 01:03:22;;;;;;;30.02;17.67;;;11.40;99.90;;;;;;5008473;28;20117;-62
2021/11/19 01:05:49;;;;;;;32.05;18.08;;;11.40;99.90;;;;;;5011231;28;20037;-61
2021/11/19 01:08:14;;;;;;;32.50;19.63;;;11.40;99.90;;;;;;4994947;28;20033;-61
2021/11/19 01:10:41;;;;;;;31.00;18.33;;;11.40;99.90;;;;;;4985197;28;20030;-62
2021/11/19 01:13:08;;;;;;;34.38;20.38;;;11.40;99.90;;;;;;4995109;28;20061;-61
2021/11/19 01:15:55;;;;;;;30.70;19.75;;;11.40;99.90;;;;;;5005864;28;20018;-61
2021/11/19 01:18:26;;;;;;;29.40;19.27;;;11.50;99.90;;;;;;4992227;28;20034;-61
2021/11/19 01:21:00;;;;;;;29.65;18.25;;;11.40;99.90;;;;;;5011273;28;20474;-62
2021/11/19 01:23:27;;;;;;;31.15;19.25;;;11.40;99.90;;;;;;5011734;28;20041;-62
2021/11/19 01:25:58;;;;;;;29.13;19.15;;;11.50;99.90;;;;;;5003902;28;20030;-61
2021/11/19 01:28:24;;;;;;;29.83;18.77;;;11.50;99.90;;;;;;5011343;28;20030;-61
2021/11/19 01:30:57;;;;;;;30.88;18.15;;;11.50;99.90;;;;;;5012082;28;20033;-61
2021/11/19 01:33:25;;;;;;;30.80;18.38;;;11.50;99.90;;;;;;5004538;28;20124;-62
2021/11/19 01:35:51;;;;;;;28.50;19.38;;;11.50;99.90;;;;;;5012002;28;20030;-62
2021/11/19 01:38:17;;;;;;;28.15;19.30;;;11.50;99.90;;;;;;5011849;28;20026;-62
2021/11/19 01:40:55;;;;;;;33.47;19.67;;;11.50;99.90;;;;;;5005005;28;20654;-61
2021/11/19 01:43:22;;;;;;;33.92;21.58;;;11.60;99.90;;;;;;5004639;28;20076;-62
2021/11/19 01:45:51;;;;;;;31.75;20.95;;;11.50;99.90;;;;;;5010435;28;20041;-61
2021/11/19 01:48:19;;;;;;;33.60;21.98;;;11.50;99.90;;;;;;4993950;28;20046;-61
2021/11/19 01:50:48;;;;;;;37.55;22.90;;;11.50;99.90;;;;;;5011562;28;20037;-61
2021/11/19 01:53:16;;;;;;;34.43;23.20;;;11.50;99.90;;;;;;5010472;28;20026;-62
2021/11/19 01:55:53;;;;;;;33.83;21.33;;;11.50;99.90;;;;;;5010599;28;20272;-62
2021/11/19 01:58:27;;;;;;;37.75;23.95;;;11.60;99.90;;;;;;5007295;28;20084;-61
2021/11/19 02:00:58;;;;;;;35.60;23.95;;;11.60;99.90;;;;;;5011761;28;20052;-62
2021/11/19 02:03:34;;;;;;;34.75;22.58;;;11.60;99.90;;;;;;5009269;28;20100;-62
2021/11/19 02:06:23;;;;;;;36.92;23.80;;;11.50;99.90;;;;;;5011440;28;20038;-61
2021/11/19 02:08:50;;;;;;;40.87;26.47;;;11.60;99.90;;;;;;5010042;28;20497;-61
2021/11/19 02:11:27;;;;;;;43.58;25.52;;;11.50;99.90;;;;;;4993303;28;20293;-62
2021/11/19 02:14:14;;;;;;;42.75;26.20;;;11.60;99.90;;;;;;5011408;28;20060;-61
2021/11/19 02:16:44;;;;;;;46.17;28.30;;;11.50;99.90;;;;;;5009963;28;20104;-61
2021/11/19 02:19:11;;;;;;;42.40;27.10;;;11.50;99.90;;;;;;5011334;28;20037;-61
2021/11/19 02:21:42;;;;;;;36.58;25.55;;;11.50;99.90;;;;;;5005231;28;20033;-61
2021/11/19 02:24:21;;;;;;;42.55;28.33;;;11.50;99.90;;;;;;5005416;28;20033;-61
2021/11/19 02:27:01;;;;;;;42.65;27.67;;;11.50;99.90;;;;;;5001481;28;20109;-61
2021/11/19 02:29:28;;;;;;;39.15;26.00;;;11.60;99.90;;;;;;5010949;28;20508;-61
2021/11/19 02:32:04;;;;;;;48.65;31.95;;;11.50;99.90;;;;;;5011074;28;20042;-61
2021/11/19 02:34:30;;;;;;;44.70;30.13;;;11.50;99.90;;;;;;5009702;28;20022;-61
2021/11/19 02:37:10;;;;;;;43.38;28.73;;;11.50;99.90;;;;;;5011095;28;20032;-61
2021/11/19 02:39:52;;;;;;;47.38;32.28;;;11.60;99.90;;;;;;5010844;28;20080;-61
2021/11/19 02:42:31;;;;;;;44.47;30.42;;;11.50;99.90;;;;;;5010595;28;20045;-61
2021/11/19 02:45:00;;;;;;;41.47;28.98;;;11.50;99.90;;;;;;5010805;28;20472;-61
2021/11/19 02:47:28;;;;;;;43.25;30.13;;;11.50;99.90;;;;;;5010793;28;20105;-62
2021/11/19 02:49:54;;;;;;;51.58;33.92;;;11.50;99.90;;;;;;5010968;28;20026;-61
2021/11/19 02:52:27;;;;;;;48.55;32.75;;;11.50;99.90;;;;;;5010512;28;20076;-62
2021/11/19 02:54:53;;;;;;;44.10;31.98;;;11.60;99.90;;;;;;5010761;28;20498;-61
2021/11/19 02:57:20;;;;;;;54.30;31.15;;;11.60;99.90;;;;;;5010600;28;20382;-61
2021/11/19 02:59:48;;;;;;;42.78;30.08;;;11.60;99.90;;;;;;4993094;28;20486;-61
2021/11/19 03:02:18;;;;;;;50.60;31.45;;;11.50;99.90;;;;;;5010992;28;20030;-61
2021/11/19 03:04:48;;;;;;;;;;;11.60;99.90;;;;;;4995305;28;20034;-61
2021/11/19 03:07:14;;;;;;;49.47;32.63;;;11.50;99.90;;;;;;5014999;28;19910;-61
2021/11/19 03:09:44;;;;;;;40.85;30.35;;;11.50;99.90;;;;;;5014390;28;20026;-61
2021/11/19 03:12:13;;;;;;;41.40;29.50;;;11.50;99.90;;;;;;5013148;28;20050;-62
2021/11/19 03:14:40;;;;;;;44.80;31.77;;;11.50;99.90;;;;;;5007102;28;20552;-61
2021/11/19 03:17:08;;;;;;;44.00;29.42;;;11.60;99.90;;;;;;4997894;28;20038;-61
2021/11/19 03:19:35;;;;;;;47.38;30.33;;;11.50;99.90;;;;;;5012527;28;20112;-62
2021/11/19 03:22:01;;;;;;;42.50;30.73;;;11.50;99.90;;;;;;5014620;28;20018;-61
2021/11/19 03:24:27;;;;;;;48.17;31.90;;;11.60;99.90;;;;;;5014338;28;20053;-61
2021/11/19 03:26:54;;;;;;;37.97;27.67;;;11.50;99.90;;;;;;5014546;28;20477;-61
2021/11/19 03:29:21;;;;;;;45.75;29.63;;;11.50;99.90;;;;;;5013996;28;20033;-61
2021/11/19 03:31:47;;;;;;;44.80;30.80;;;11.60;99.90;;;;;;5014324;28;20056;-61
2021/11/19 03:34:13;;;;;;;43.95;29.95;;;11.60;99.90;;;;;;5007727;28;20018;-61
2021/11/19 03:36:46;;;;;;;45.25;29.77;;;11.60;99.90;;;;;;4993670;28;20474;-61
2021/11/19 03:39:14;;;;;;;41.97;29.05;;;11.60;99.90;;;;;;5009884;28;22182;-61
2021/11/19 03:41:42;;;;;;;43.58;28.95;;;11.60;99.90;;;;;;5013609;28;20064;-61
2021/11/19 03:44:20;;;;;;;45.83;30.05;;;11.60;99.90;;;;;;5013788;28;20459;-61
2021/11/19 03:46:58;;;;;;;42.95;28.88;;;11.60;99.90;;;;;;5014081;28;20088;-61
2021/11/19 03:49:25;;;;;;;44.15;29.58;;;11.60;99.90;;;;;;5014161;28;20079;-62
2021/11/19 03:52:01;;;;;;;47.13;29.83;;;11.60;99.90;;;;;;5005745;28;20032;-61
2021/11/19 03:54:28;;;;;;;42.53;30.10;;;11.60;99.90;;;;;;5013903;28;20022;-61
2021/11/19 03:56:55;;;;;;;44.20;30.63;;;11.60;99.90;;;;;;5011453;28;20134;-61
2021/11/19 03:59:21;;;;;;;41.90;29.33;;;11.60;99.90;;;;;;5009679;28;20387;-61
2021/11/19 04:01:49;;;;;;;46.33;30.20;;;11.50;99.90;;;;;;5013290;28;20030;-61
2021/11/19 04:04:18;;;;;;;45.78;30.83;;;11.50;99.90;;;;;;5013144;28;20036;-61
2021/11/19 04:06:44;;;;;;;40.42;28.75;;;11.60;99.90;;;;;;5011265;28;20486;-61
2021/11/19 04:09:10;;;;;;;40.45;27.40;;;11.60;99.90;;;;;;5012728;28;20034;-61
2021/11/19 04:11:36;;;;;;;41.28;27.90;;;11.60;99.90;;;;;;5012984;28;20042;-61
2021/11/19 04:14:19;;;;;;;46.03;29.27;;;11.60;99.90;;;;;;5013156;28;20038;-61
2021/11/19 04:19:46;;;;;;;44.53;28.27;;;11.60;99.90;;;;;;4997759;28;20168;-61
2021/11/19 04:22:15;;;;;;;43.88;29.40;;;11.60;99.90;;;;;;4995269;28;20076;-61
2021/11/19 04:24:51;;;;;;;41.47;27.70;;;11.60;99.90;;;;;;5004753;28;20541;-61
2021/11/19 04:27:18;;;;;;;40.42;28.83;;;11.60;99.90;;;;;;4999581;28;20034;-62
2021/11/19 04:29:44;;;;;;;46.65;28.33;;;11.60;99.90;;;;;;5012772;28;20103;-61
2021/11/19 04:32:10;;;;;;;43.92;29.02;;;11.60;99.90;;;;;;5013509;28;20049;-62
2021/11/19 04:34:39;;;;;;;45.13;29.83;;;11.60;99.90;;;;;;5013358;28;20057;-61
2021/11/19 04:37:05;;;;;;;44.10;29.55;;;11.60;99.90;;;;;;4989036;28;20053;-61
2021/11/19 04:39:30;;;;;;;44.28;28.25;;;11.60;99.90;;;;;;4995576;28;20386;-61
2021/11/19 04:41:57;;;;;;;47.10;29.77;;;11.50;99.90;;;;;;5013000;28;20029;-61
2021/11/19 04:44:23;;;;;;;43.97;30.33;;;11.50;99.90;;;;;;5012114;28;20026;-61
2021/11/19 04:46:50;;;;;;;45.03;28.67;;;11.50;99.90;;;;;;5012754;28;20030;-62
2021/11/19 04:49:16;;;;;;;40.08;27.05;;;11.50;99.90;;;;;;4995226;28;20041;-61
2021/11/19 04:51:51;;;;;;;38.55;26.90;;;11.50;99.90;;;;;;5011456;28;20037;-61
2021/11/19 04:54:18;;;;;;;51.53;31.58;;;11.60;99.90;;;;;;5012081;28;20043;-62
2021/11/19 04:56:45;;;;;;;44.88;30.17;;;11.60;99.90;;;;;;5012638;28;20022;-61
2021/11/19 04:59:12;;;;;;;46.58;30.50;;;11.50;99.90;;;;;;5012907;28;20022;-62
2021/11/19 05:01:43;;;;;;;46.33;30.75;;;11.50;99.90;;;;;;4994098;28;20092;-61
2021/11/19 05:04:09;;;;;;;47.47;28.52;;;11.50;99.90;;;;;;5012611;28;20030;-61
2021/11/19 05:06:35;;;;;;;44.95;30.67;;;11.50;99.90;;;;;;4994378;28;20026;-61
2021/11/19 05:09:03;;;;;;;47.53;31.85;;;11.60;99.90;;;;;;4994732;28;20068;-62
2021/11/19 05:11:43;;;;;;;44.15;31.58;;;11.60;99.90;;;;;;5012258;28;20069;-61
2021/11/19 05:14:09;;;;;;;47.75;31.35;;;11.60;99.90;;;;;;5011012;28;20080;-62
2021/11/19 05:16:35;;;;;;;48.88;32.13;;;11.60;99.90;;;;;;5011200;28;20030;-62
2021/11/19 05:19:02;;;;;;;45.72;30.98;;;11.60;99.90;;;;;;5005700;28;20033;-61
2021/11/19 05:21:28;;;;;;;47.55;31.00;;;11.60;99.90;;;;;;4994745;28;20041;-61
2021/11/19 05:23:53;;;;;;;44.97;30.00;;;11.60;99.90;;;;;;4994825;28;20038;-61
2021/11/19 05:26:19;;;;;;;48.45;32.42;;;11.60;99.90;;;;;;5011743;28;20026;-61
2021/11/19 05:28:45;;;;;;;50.90;32.40;;;11.60;99.90;;;;;;4994503;28;20026;-62
2021/11/19 05:31:13;;;;;;;47.63;32.53;;;11.60;99.90;;;;;;4994409;28;20374;-61
2021/11/19 05:33:40;;;;;;;48.53;30.85;;;11.60;99.90;;;;;;5011781;28;20033;-61
2021/11/19 05:36:10;;;;;;;43.92;29.98;;;11.60;99.90;;;;;;5012030;28;20591;-61
2021/11/19 05:38:37;;;;;;;42.45;28.40;;;11.60;99.90;;;;;;5011590;28;20118;-61
2021/11/19 05:41:11;;;;;;;42.22;28.45;;;11.60;99.90;;;;;;4982383;28;20026;-61
2021/11/19 05:43:39;;;;;;;48.33;31.20;;;11.60;99.90;;;;;;5011960;28;20447;-61
2021/11/19 05:46:06;;;;;;;45.42;30.60;;;11.60;99.90;;;;;;5011511;28;20033;-61
2021/11/19 05:48:44;;;;;;;46.00;30.40;;;11.60;99.90;;;;;;5005420;28;20061;-61
2021/11/19 05:51:11;;;;;;;42.47;28.70;;;11.60;99.90;;;;;;4992142;28;20386;-61
2021/11/19 05:53:37;;;;;;;40.63;27.90;;;11.60;99.90;;;;;;5011651;28;20045;-61
2021/11/19 05:56:04;;;;;;;48.17;30.83;;;11.60;99.90;;;;;;5011720;28;20030;-61
2021/11/19 05:58:30;;;;;;;39.85;29.02;;;11.50;99.90;;;;;;5011693;28;20398;-61
2021/11/19 06:01:18;;;;;;;45.63;31.45;;;11.60;99.90;;;;;;4993751;28;20038;-61
2021/11/19 06:03:45;;;;;;;43.83;30.65;;;11.60;99.90;;;;;;4992688;28;20032;-61
2021/11/19 06:06:11;;;;;;;48.17;30.92;;;11.60;99.90;;;;;;4999538;28;20033;-61
2021/11/19 06:08:38;;;;;;;44.72;29.77;;;11.60;99.90;;;;;;5009426;28;20129;-61
2021/11/19 06:11:31;;;;;;;47.22;31.48;;;11.60;99.90;;;;;;5010878;28;20038;-61
2021/11/19 06:13:59;;;;;;;46.13;31.02;;;11.60;99.90;;;;;;5001316;28;20033;-62
2021/11/19 06:16:29;;;;;;;48.50;30.17;;;11.60;99.90;;;;;;5010907;28;20038;-62
2021/11/19 06:19:00;;;;;;;51.33;31.60;;;11.60;99.90;;;;;;5011145;28;20084;-62
2021/11/19 06:21:37;;;;;;;45.58;30.90;;;11.60;99.90;;;;;;4983090;28;20096;-61
2021/11/19 06:24:08;;;;;;;42.00;29.48;;;11.60;99.90;;;;;;5010382;28;20394;-62
2021/11/19 06:27:03;;;;;;;48.10;30.15;;;11.60;99.90;;;;;;5009981;28;20033;-62
2021/11/19 06:29:28;;;;;;;42.38;27.73;;;11.60;99.90;;;;;;5008673;28;20146;-61
2021/11/19 06:31:56;;;;;;;44.58;30.05;;;11.60;99.90;;;;;;5011006;28;20442;-61
2021/11/19 06:34:53;;;;;;;45.35;28.48;;;11.60;99.90;;;;;;4993392;28;20386;-61
2021/11/19 06:37:20;;;;;;;39.40;26.58;;;11.60;99.90;;;;;;5006966;28;20034;-61
2021/11/19 06:39:47;;;;;;;43.10;28.27;;;11.60;99.90;;;;;;5010422;28;20030;-61
2021/11/19 06:42:13;;;;;;;39.42;27.10;;;11.60;99.90;;;;;;4993534;28;20052;-61
2021/11/19 06:44:41;;;;;;;43.03;26.70;;;11.60;99.90;;;;;;5006992;28;20383;-61
2021/11/19 06:47:08;;;;;;;39.85;25.65;;;11.60;99.90;;;;;;5012256;28;20104;-61
2021/11/19 06:49:33;;;;;;;49.08;32.83;;;11.60;99.90;;;;;;5012433;28;20036;-61
2021/11/19 06:52:00;;;;;;;51.47;32.42;;;11.60;99.90;;;;;;5012275;28;20117;-62
2021/11/19 06:54:26;;;;;;;47.33;28.92;;;11.60;99.90;;;;;;5012696;28;20038;-62
2021/11/19 06:56:55;;;;;;;42.33;27.95;;;11.60;99.90;;;;;;5011862;28;20483;-61
2021/11/19 06:59:20;;;;;;;39.47;28.42;;;11.60;99.90;;;;;;5012790;28;20029;-61
2021/11/19 07:01:46;;;;;;;43.80;28.30;;;11.60;99.90;;;;;;5011704;28;20049;-61
2021/11/19 07:04:12;;;;;;;38.28;26.77;;;11.60;99.90;;;;;;5011772;28;20461;-61
2021/11/19 07:06:38;;;;;;;40.95;27.30;;;11.60;99.90;;;;;;5012293;28;20026;-61
2021/11/19 07:09:06;;;;;;;41.35;26.70;;;11.60;99.90;;;;;;5012429;28;20026;-61
2021/11/19 07:11:32;;;;;;;37.35;25.77;;;11.70;99.90;;;;;;4994483;28;20096;-61
2021/11/19 07:13:58;;;;;;;35.83;25.90;;;11.70;99.90;;;;;;5012151;28;20028;-61
2021/11/19 07:16:27;;;;;;;39.50;26.95;;;11.70;99.90;;;;;;5012130;28;20088;-61
2021/11/19 07:18:54;;;;;;;39.75;27.00;;;11.70;99.90;;;;;;5009812;28;20469;-61
2021/11/19 07:21:21;;;;;;;39.60;28.08;;;11.70;99.90;;;;;;5011105;28;20072;-61
2021/11/19 07:23:46;;;;;;;41.22;28.88;;;11.70;99.90;;;;;;4994295;28;20386;-61
2021/11/19 07:26:13;;;;;;;44.15;28.63;;;11.70;99.90;;;;;;5012106;28;20045;-61
2021/11/19 07:28:47;;;;;;;37.50;26.92;;;11.70;99.90;;;;;;5012122;28;20030;-61
2021/11/19 07:31:14;;;;;;;35.88;25.40;;;11.70;99.90;;;;;;5011987;28;20394;-61
2021/11/19 07:33:40;;;;;;;34.80;24.30;;;11.70;99.90;;;;;;5011770;28;20406;-61
2021/11/19 07:39:30;;;;;;;36.72;25.38;;;11.80;99.90;;;;;;4913208;29;20571;-61
2021/11/19 07:41:56;;;;;;;36.97;24.92;;;11.70;99.90;;;;;;5001887;28;20058;-61
2021/11/19 07:44:21;;;;;;;36.70;25.38;;;11.70;99.90;;;;;;4988248;28;20023;-61
2021/11/19 07:47:13;;;;;;;39.42;27.00;;;11.80;99.90;;;;;;5009619;28;20447;-61
2021/11/19 07:49:39;;;;;;;38.92;26.13;;;11.80;99.90;;;;;;4993761;28;20030;-61
2021/11/19 07:52:05;;;;;;;34.00;23.77;;;11.80;99.90;;;;;;5015439;28;20064;-61
2021/11/19 07:54:31;;;;;;;38.50;27.10;;;11.80;99.90;;;;;;4997998;28;20022;-61
2021/11/19 07:56:57;;;;;;;40.22;25.88;;;11.80;99.90;;;;;;5015490;28;20108;-61
2021/11/19 08:00:19;;;;;;;;;;;;;;;;;;;;;
2021/11/19 08:02:46;;;;;;;38.28;25.60;;;11.90;99.90;;;;;;4962482;28;20490;-60
2021/11/19 08:06:31;;;;;;;34.60;24.90;;;11.80;99.90;;;;;;5015380;28;20037;-61
2021/11/19 08:09:12;;;;;;;34.80;23.67;;;11.90;99.90;;;;;;5001165;28;20085;-61
2021/11/19 08:11:38;;;;;;;37.35;24.40;;;11.90;99.90;;;;;;4993289;28;20039;-61
2021/11/19 08:14:04;;;;;;;33.72;25.45;;;11.90;99.90;;;;;;5005767;28;20030;-61
2021/11/19 08:16:38;;;;;;;33.72;22.23;;;11.90;99.90;;;;;;5012735;28;20364;-61
2021/11/19 08:19:10;;;;;;;34.40;22.52;;;12.00;99.90;;;;;;5006458;28;20109;-61
2021/11/19 08:21:36;;;;;;;35.00;23.23;;;12.00;99.90;;;;;;5013402;28;20497;-61
2021/11/19 08:24:04;;;;;;;33.20;23.30;;;12.00;99.90;;;;;;5013211;28;20034;-61
2021/11/19 08:26:49;;;;;;;;;;;;;;;;;;;;;
2021/11/19 08:30:04;;;;;;;31.85;23.30;;;12.00;99.90;;;;;;5014653;28;20032;-61
2021/11/19 08:32:30;;;;;;;30.83;21.88;;;12.10;99.90;;;;;;4999022;28;20099;-61
2021/11/19 08:34:56;;;;;;;38.63;25.58;;;12.10;99.90;;;;;;5011672;28;20517;-61
2021/11/19 08:37:24;;;;;;;34.33;24.58;;;12.10;99.90;;;;;;5014157;28;20042;-61
2021/11/19 08:40:39;;;;;;;;;;;;;;;;;;;;;
2021/11/19 08:43:06;;;;;;;32.00;23.42;;;12.20;99.90;;;;;;5012489;28;20501;-61
2021/11/19 08:45:31;;;;;;;34.83;24.08;;;12.10;99.90;;;;;;5014335;28;20022;-61
2021/11/19 08:47:57;;;;;;;31.90;21.83;;;12.20;99.90;;;;;;5014147;28;20034;-61
2021/11/19 08:50:27;;;;;;;29.85;21.65;;;12.20;99.90;;;;;;5014457;28;20393;-60
2021/11/19 08:52:52;;;;;;;29.05;21.23;;;12.30;99.90;;;;;;5014291;28;20053;-61
2021/11/19 08:55:19;;;;;;;30.05;22.13;;;12.30;99.90;;;;;;5014246;28;20430;-61
2021/11/19 08:57:45;;;;;;;31.92;21.98;;;12.30;99.90;;;;;;5014206;28;20056;-61
2021/11/19 09:00:15;;;;;;;29.35;21.67;;;12.30;99.90;;;;;;5012576;28;20046;-61
2021/11/19 09:02:41;;;;;;;30.38;21.98;;;12.40;99.90;;;;;;5013216;28;20025;-61
2021/11/19 09:05:08;;;;;;;34.17;21.73;;;12.40;99.90;;;;;;4987801;28;20022;-61
2021/11/19 09:07:35;;;;;;;30.15;21.50;;;12.40;99.90;;;;;;5011300;28;20026;-61
2021/11/19 09:10:06;;;;;;;29.05;20.35;;;12.50;99.90;;;;;;4994708;28;20026;-61
2021/11/19 09:12:32;;;;;;;26.05;19.10;;;12.50;99.90;;;;;;5011864;28;20038;-61
2021/11/19 09:14:57;;;;;;;26.10;20.00;;;12.50;99.90;;;;;;5005441;28;20117;-61
2021/11/19 09:17:24;;;;;;;27.35;19.05;;;12.50;99.90;;;;;;5006898;28;20101;-61
2021/11/19 09:20:13;;;;;;;25.92;20.00;;;12.50;99.90;;;;;;5013365;28;20032;-61
2021/11/19 09:23:14;;;;;;;;;;;;;;;;;;;;;
2021/11/19 09:33:08;;;;;;;23.55;17.80;;;12.70;99.90;;;;;;4945721;29;20526;-61
2021/11/19 09:35:35;;;;;;;19.30;13.82;;;12.70;99.90;;;;;;4945762;29;20148;-61
2021/11/19 09:38:05;;;;;;;23.33;15.15;;;12.70;99.90;;;;;;4990735;28;20046;-61
2021/11/19 09:40:38;;;;;;;20.38;15.57;;;12.80;99.90;;;;;;5013665;28;20097;-61
2021/11/19 09:43:29;;;;;;;22.73;15.77;;;13.00;99.90;;;;;;5013444;28;20532;-61
2021/11/19 09:46:35;;;;;;;21.70;16.75;;;13.00;99.90;;;;;;5013359;28;20040;-61
2021/11/19 09:49:22;;;;;;;19.77;15.07;;;13.10;99.90;;;;;;5013167;28;20029;-61
2021/11/19 09:52:28;;;;;;;22.55;16.67;;;13.10;99.90;;;;;;5012844;28;20026;-60
2021/11/19 09:55:27;;;;;;;19.92;14.85;;;13.20;99.90;;;;;;5013171;28;20022;-63
2021/11/19 09:58:47;;;;;;;;;;;;;;;;;;;;;
2021/11/19 10:01:51;;;;;;;15.57;13.38;;;13.40;99.90;;;;;;5013046;28;20033;-61
2021/11/19 10:04:27;;;;;;;15.70;12.32;;;13.50;99.90;;;;;;5013019;28;20037;-61
2021/11/19 10:07:09;;;;;;;20.45;14.02;;;13.60;99.90;;;;;;5012164;28;20025;-61
2021/11/19 10:10:01;;;;;;;15.23;12.55;;;13.60;99.90;;;;;;4995197;28;20112;-61
2021/11/19 10:12:35;;;;;;;18.80;12.48;;;13.70;99.90;;;;;;5012805;28;20045;-61
2021/11/19 10:15:23;;;;;;;16.10;11.93;;;13.60;99.90;;;;;;4994457;28;20037;-61
2021/11/19 10:18:04;;;;;;;17.40;11.77;;;13.60;99.90;;;;;;5012754;28;20073;-60
2021/11/19 10:20:59;;;;;;;15.77;10.90;;;13.70;99.90;;;;;;5012759;28;20025;-60
2021/11/19 10:23:40;;;;;;;20.75;12.15;;;13.70;99.90;;;;;;4968430;28;20026;-61
2021/11/19 10:26:33;;;;;;;13.73;10.60;;;13.70;99.90;;;;;;4986920;28;20034;-61
2021/11/19 10:29:17;;;;;;;15.82;10.85;;;13.80;99.90;;;;;;5012275;28;20505;-61
2021/11/19 10:31:46;;;;;;;13.52;10.50;;;13.80;99.90;;;;;;4993354;28;20021;-61
2021/11/19 10:34:19;;;;;;;15.40;10.80;;;14.00;99.90;;;;;;5011233;28;20026;-60
2021/11/19 10:37:26;;;;;;;15.85;11.30;;;14.20;99.90;;;;;;5007552;28;20300;-61
2021/11/19 10:40:20;;;;;;;14.02;10.50;;;14.40;99.90;;;;;;4978107;28;20034;-61
2021/11/19 10:42:46;;;;;;;14.68;10.23;;;14.50;99.90;;;;;;4968239;28;20054;-61
2021/11/19 10:45:28;;;;;;;13.52;8.38;;;14.50;99.90;;;;;;5010254;28;20030;-61
2021/11/19 10:48:15;;;;;;;14.25;9.25;;;14.60;99.90;;;;;;4984043;28;20026;-61
2021/11/19 10:51:00;;;;;;;14.27;9.25;;;14.60;99.90;;;;;;5009983;28;20030;-61
2021/11/19 10:54:03;;;;;;;13.68;8.65;;;14.60;99.90;;;;;;4992685;28;20032;-61
2021/11/19 10:56:34;;;;;;;11.65;8.48;;;14.60;99.90;;;;;;5010509;28;20072;-61
2021/11/19 10:59:22;;;;;;;12.77;8.82;;;14.60;99.90;;;;;;5012351;28;20033;-61
2021/11/19 11:02:16;;;;;;;12.45;9.50;;;14.60;99.90;;;;;;5011253;28;20033;-61
2021/11/19 11:05:02;;;;;;;12.38;8.55;;;14.70;99.90;;;;;;5009536;28;20018;-61
2021/11/19 11:07:29;;;;;;;9.45;7.28;;;14.60;99.90;;;;;;5010902;28;20041;-62
2021/11/19 11:09:58;;;;;;;10.23;7.50;;;14.50;99.90;;;;;;5012046;28;20083;-61
2021/11/19 11:12:44;;;;;;;10.25;7.05;;;14.50;99.80;;;;;;5012016;28;20046;-61
2021/11/19 11:15:26;;;;;;;7.78;5.38;;;14.60;99.40;;;;;;5012037;28;20017;-61
2021/11/19 11:18:14;;;;;;;8.70;4.55;;;14.60;99.20;;;;;;5012072;28;20030;-61
2021/11/19 11:20:52;;;;;;;7.15;4.70;;;14.70;98.80;;;;;;4992578;28;20030;-61
2021/11/19 11:23:23;;;;;;;5.55;4.10;;;14.80;98.40;;;;;;5005102;28;20136;-61
2021/11/19 11:26:12;;;;;;;7.32;4.20;;;14.70;98.10;;;;;;5014155;28;20026;-61
2021/11/19 11:28:40;;;;;;;9.70;4.63;;;14.80;98.10;;;;;;5016258;28;20037;-61
2021/11/19 11:31:29;;;;;;;7.30;4.22;;;15.00;98.10;;;;;;5005904;28;20424;-61
2021/11/19 11:34:23;;;;;;;6.63;3.78;;;15.90;97.60;;;;;;5011754;28;20065;-61
2021/11/19 11:36:51;;;;;;;7.07;3.90;;;17.00;96.10;;;;;;5014068;28;20132;-62
2021/11/19 11:39:22;;;;;;;7.35;3.90;;;17.60;94.10;;;;;;5015436;28;20028;-61
2021/11/19 11:42:21;;;;;;;4.95;3.15;;;17.90;93.30;;;;;;5015781;28;20109;-61
2021/11/19 11:44:49;;;;;;;7.13;2.97;;;17.90;92.60;;;;;;5015607;28;20037;-61
2021/11/19 11:47:43;;;;;;;5.93;3.10;;;17.50;92.50;;;;;;5014969;28;20061;-61
2021/11/19 11:50:20;;;;;;;3.90;2.63;;;17.40;92.60;;;;;;5014605;28;20478;-61
2021/11/19 11:53:16;;;;;;;7.28;3.53;;;17.40;92.60;;;;;;5015485;28;20080;-61
2021/11/19 11:56:15;;;;;;;5.20;2.80;;;17.20;92.20;;;;;;5014347;28;20101;-61
2021/11/19 11:58:51;;;;;;;7.45;3.65;;;16.90;92.30;;;;;;4997887;28;20030;-61
2021/11/19 12:01:32;;;;;;;5.03;2.90;;;16.50;92.60;;;;;;5013458;28;20058;-61
2021/11/19 12:04:06;;;;;;;4.90;2.70;;;16.30;93.00;;;;;;5015754;28;20030;-61
2021/11/19 12:06:42;;;;;;;6.72;3.08;;;16.10;93.30;;;;;;5015194;28;20111;-61
2021/11/19 12:09:29;;;;;;;8.52;3.42;;;15.80;93.50;;;;;;5012164;28;20466;-61
2021/11/19 12:12:21;;;;;;;7.07;2.65;;;15.70;93.70;;;;;;5007633;28;20045;-61
2021/11/19 12:14:46;;;;;;;4.30;2.50;;;15.50;93.90;;;;;;5014834;28;20030;-61
2021/11/19 12:17:30;;;;;;;6.55;2.47;;;15.40;94.20;;;;;;5009512;28;20023;-61
2021/11/19 12:20:11;;;;;;;3.22;1.70;;;15.40;94.20;;;;;;5015080;28;20036;-61
2021/11/19 12:22:45;;;;;;;4.30;2.22;;;15.40;94.30;;;;;;4997383;28;20065;-61
2021/11/19 12:25:58;;;;;;;3.90;1.70;;;15.70;94.20;;;;;;5014595;28;20033;-61
2021/11/19 12:28:30;;;;;;;5.00;2.10;;;16.00;93.70;;;;;;5015010;28;20030;-61
2021/11/19 12:31:16;;;;;;;5.72;2.40;;;16.00;93.60;;;;;;5015107;28;20029;-61
2021/11/19 12:33:45;;;;;;;4.15;1.90;;;15.90;93.30;;;;;;5014565;28;20033;-61
2021/11/19 12:36:25;;;;;;;4.38;2.63;;;15.80;93.50;;;;;;5014296;28;20018;-61
2021/11/19 12:38:58;;;;;;;4.15;1.83;;;15.70;93.60;;;;;;4997064;28;20038;-61
2021/11/19 12:41:29;;;;;;;3.95;1.67;;;15.60;93.70;;;;;;5007890;28;20022;-61
2021/11/19 12:44:27;;;;;;;4.00;2.00;;;15.40;93.80;;;;;;5006758;28;20052;-61
2021/11/19 12:47:30;;;;;;;3.60;1.98;;;15.30;94.00;;;;;;5014346;28;20117;-61
2021/11/19 12:50:17;;;;;;;4.60;2.05;;;15.20;94.30;;;;;;5014368;28;20490;-61
2021/11/19 12:52:54;;;;;;;5.70;2.15;;;15.00;94.50;;;;;;5013994;28;20534;-61
2021/11/19 12:55:41;;;;;;;5.53;2.47;;;15.00;94.70;;;;;;5014141;28;20030;-61
2021/11/19 12:58:29;;;;;;;6.30;2.10;;;15.00;94.90;;;;;;5008826;28;20494;-61
2021/11/19 13:01:45;;;;;;;;;;;;;;;;;;;;;
2021/11/19 13:04:57;;;;;;;6.38;2.80;;;14.90;95.20;;;;;;5006815;28;20020;-62
2021/11/19 13:07:44;;;;;;;4.45;2.13;;;14.90;95.30;;;;;;4982288;28;20045;-61
2021/11/19 13:10:15;;;;;;;7.25;2.22;;;14.90;95.50;;;;;;5002587;28;20034;-61
2021/11/19 13:13:23;;;;;;;4.80;2.30;;;14.80;95.60;;;;;;5009439;28;20046;-62
2021/11/19 13:16:10;;;;;;;4.65;2.10;;;14.80;95.60;;;;;;4969523;28;20038;-61
2021/11/19 13:18:48;;;;;;;3.25;2.03;;;14.70;95.90;;;;;;5008487;28;20033;-62
2021/11/19 13:21:32;;;;;;;6.22;2.05;;;14.70;96.00;;;;;;5007045;28;20081;-61
2021/11/19 13:24:27;;;;;;;3.72;2.55;;;14.70;96.00;;;;;;5006235;28;20025;-62
2021/11/19 13:27:13;;;;;;;4.80;2.42;;;14.60;96.20;;;;;;5008994;28;20036;-62
2021/11/19 13:29:48;;;;;;;4.07;2.13;;;14.50;96.40;;;;;;5013391;28;20100;-61